Terminal Aerodrome Forecast
Issued by NWS Sioux Falls, SD

Home | Current Version | Previous Version | Text Only | Print | Product List | Glossary On
Versions: 1 2 3 4 5 6 7 8 9 10 11 12 13
000
FTUS43 KFSD 011723
TAFFSD
TAF
KFSD 011723Z 0118/0218 29009KT P6SM SCT040
     FM020000 27005KT P6SM SCT120
     FM020400 25005KT P6SM -SHRA BKN040
     FM020800 24005KT P6SM SKC
      TEMPO 0211/0213 4SM BR
     FM021400 25007KT P6SM SKC=

USA.gov is the U.S. government's official web portal to all federal, state and local government web resources and services.